Aviation Digital Data Service (ADDS)

Output produced by METARs form (1808 UTC 01 September 2015)
found at http://aviationweather.gov/adds/metars/
 
KLCH 011735Z 0118/0218 VRB06KT P6SM VCTS SCT018CB BKN035 
     TEMPO 0118/0119 BKN018CB 
     FM011900 VRB06KT P6SM -RA VCTS SCT025CB BKN040 
     TEMPO 0120/0123 VRB15G25KT 2SM +TSRA BKN025CB OVC035 
     FM020100 00000KT P6SM FEW040 BKN150 
     FM021500 VRB06KT P6SM VCSH SCT025 BKN100